sensor_id;sensor_type;location;lat;lon;timestamp;P1;durP1;ratioP1;P2;durP2;ratioP2
17449;SDS011;8842;51.244;7.102;2022-12-18T00:03:50;7.30;;;7.00;;
17449;SDS011;8842;51.244;7.102;2022-12-18T00:08:55;7.20;;;6.90;;
17449;SDS011;8842;51.244;7.102;2022-12-18T00:14:00;8.10;;;7.50;;
17449;SDS011;8842;51.244;7.102;2022-12-18T00:19:14;7.60;;;7.20;;
17449;SDS011;8842;51.244;7.102;2022-12-18T00:29:30;7.83;;;7.07;;
17449;SDS011;8842;51.244;7.102;2022-12-18T00:34:34;6.90;;;6.60;;
17449;SDS011;8842;51.244;7.102;2022-12-18T00:39:48;7.10;;;6.80;;
17449;SDS011;8842;51.244;7.102;2022-12-18T00:44:52;7.30;;;6.90;;
17449;SDS011;8842;51.244;7.102;2022-12-18T00:50:05;7.67;;;7.07;;
17449;SDS011;8842;51.244;7.102;2022-12-18T00:55:11;7.20;;;6.80;;
17449;SDS011;8842;51.244;7.102;2022-12-18T01:00:24;7.10;;;6.80;;
17449;SDS011;8842;51.244;7.102;2022-12-18T01:05:28;8.17;;;7.67;;
17449;SDS011;8842;51.244;7.102;2022-12-18T01:10:32;7.53;;;7.13;;
17449;SDS011;8842;51.244;7.102;2022-12-18T01:15:48;7.90;;;7.40;;
17449;SDS011;8842;51.244;7.102;2022-12-18T01:20:52;7.90;;;7.40;;
17449;SDS011;8842;51.244;7.102;2022-12-18T01:26:04;7.73;;;7.33;;
17449;SDS011;8842;51.244;7.102;2022-12-18T01:31:13;7.77;;;7.37;;
17449;SDS011;8842;51.244;7.102;2022-12-18T01:36:27;7.37;;;7.00;;
17449;SDS011;8842;51.244;7.102;2022-12-18T01:46:43;7.30;;;7.00;;
17449;SDS011;8842;51.244;7.102;2022-12-18T01:56:58;8.50;;;7.90;;
17449;SDS011;8842;51.244;7.102;2022-12-18T02:02:03;7.70;;;7.20;;
17449;SDS011;8842;51.244;7.102;2022-12-18T02:07:09;8.07;;;7.47;;
17449;SDS011;8842;51.244;7.102;2022-12-18T02:17:28;7.37;;;7.00;;
17449;SDS011;8842;51.244;7.102;2022-12-18T02:27:47;7.80;;;7.40;;
17449;SDS011;8842;51.244;7.102;2022-12-18T02:38:04;7.97;;;7.57;;
17449;SDS011;8842;51.244;7.102;2022-12-18T02:48:21;7.87;;;7.47;;
17449;SDS011;8842;51.244;7.102;2022-12-18T02:53:28;7.53;;;7.20;;
17449;SDS011;8842;51.244;7.102;2022-12-18T02:58:43;7.80;;;7.40;;
17449;SDS011;8842;51.244;7.102;2022-12-18T03:03:50;7.90;;;7.50;;
17449;SDS011;8842;51.244;7.102;2022-12-18T03:09:04;7.70;;;7.30;;
17449;SDS011;8842;51.244;7.102;2022-12-18T03:14:11;7.53;;;7.20;;
17449;SDS011;8842;51.244;7.102;2022-12-18T03:19:25;7.63;;;7.23;;
17449;SDS011;8842;51.244;7.102;2022-12-18T03:24:38;7.97;;;7.57;;
17449;SDS011;8842;51.244;7.102;2022-12-18T03:29:57;7.87;;;7.47;;
17449;SDS011;8842;51.244;7.102;2022-12-18T03:35:07;8.00;;;7.60;;
17449;SDS011;8842;51.244;7.102;2022-12-18T03:40:20;7.57;;;7.20;;
17449;SDS011;8842;51.244;7.102;2022-12-18T03:50:42;7.77;;;7.37;;
17449;SDS011;8842;51.244;7.102;2022-12-18T03:55:53;7.73;;;7.33;;
17449;SDS011;8842;51.244;7.102;2022-12-18T04:01:00;7.80;;;7.40;;
17449;SDS011;8842;51.244;7.102;2022-12-18T04:06:12;7.50;;;7.20;;
17449;SDS011;8842;51.244;7.102;2022-12-18T04:16:29;8.00;;;7.60;;
17449;SDS011;8842;51.244;7.102;2022-12-18T04:21:33;7.90;;;7.50;;
17449;SDS011;8842;51.244;7.102;2022-12-18T04:26:45;7.87;;;7.47;;
17449;SDS011;8842;51.244;7.102;2022-12-18T04:31:49;7.93;;;7.53;;
17449;SDS011;8842;51.244;7.102;2022-12-18T04:37:00;7.93;;;7.53;;
17449;SDS011;8842;51.244;7.102;2022-12-18T04:47:15;8.20;;;7.77;;
17449;SDS011;8842;51.244;7.102;2022-12-18T04:57:30;8.93;;;8.33;;
17449;SDS011;8842;51.244;7.102;2022-12-18T05:02:35;8.00;;;7.60;;
17449;SDS011;8842;51.244;7.102;2022-12-18T05:07:46;7.80;;;7.40;;
17449;SDS011;8842;51.244;7.102;2022-12-18T05:18:01;7.90;;;7.50;;
17449;SDS011;8842;51.244;7.102;2022-12-18T05:23:06;7.93;;;7.53;;
17449;SDS011;8842;51.244;7.102;2022-12-18T05:28:18;7.63;;;7.23;;
17449;SDS011;8842;51.244;7.102;2022-12-18T05:38:34;7.70;;;7.30;;
17449;SDS011;8842;51.244;7.102;2022-12-18T05:43:40;8.40;;;7.90;;
17449;SDS011;8842;51.244;7.102;2022-12-18T05:48:44;8.30;;;7.90;;
17449;SDS011;8842;51.244;7.102;2022-12-18T05:53:49;8.00;;;7.60;;
17449;SDS011;8842;51.244;7.102;2022-12-18T05:59:01;7.20;;;6.90;;
17449;SDS011;8842;51.244;7.102;2022-12-18T06:04:05;7.57;;;7.20;;
17449;SDS011;8842;51.244;7.102;2022-12-18T06:09:16;7.40;;;7.10;;
17449;SDS011;8842;51.244;7.102;2022-12-18T06:14:21;7.93;;;7.53;;
17449;SDS011;8842;51.244;7.102;2022-12-18T06:19:32;7.80;;;7.40;;
17449;SDS011;8842;51.244;7.102;2022-12-18T06:24:36;7.40;;;7.10;;
17449;SDS011;8842;51.244;7.102;2022-12-18T06:29:48;7.03;;;6.73;;
17449;SDS011;8842;51.244;7.102;2022-12-18T06:34:52;7.63;;;7.27;;
17449;SDS011;8842;51.244;7.102;2022-12-18T06:40:05;7.40;;;7.10;;
17449;SDS011;8842;51.244;7.102;2022-12-18T06:45:10;8.33;;;7.90;;
17449;SDS011;8842;51.244;7.102;2022-12-18T06:50:22;7.97;;;7.57;;
17449;SDS011;8842;51.244;7.102;2022-12-18T07:00:37;7.90;;;7.50;;
17449;SDS011;8842;51.244;7.102;2022-12-18T07:05:41;7.97;;;7.57;;
17449;SDS011;8842;51.244;7.102;2022-12-18T07:10:56;8.20;;;7.80;;
17449;SDS011;8842;51.244;7.102;2022-12-18T07:16:04;7.90;;;7.50;;
17449;SDS011;8842;51.244;7.102;2022-12-18T07:21:27;8.53;;;7.93;;
17449;SDS011;8842;51.244;7.102;2022-12-18T07:26:38;8.33;;;7.90;;
17449;SDS011;8842;51.244;7.102;2022-12-18T07:31:43;8.50;;;7.90;;
17449;SDS011;8842;51.244;7.102;2022-12-18T07:36:54;8.87;;;8.27;;
17449;SDS011;8842;51.244;7.102;2022-12-18T07:41:58;8.13;;;7.73;;
17449;SDS011;8842;51.244;7.102;2022-12-18T07:47:10;10.27;;;9.37;;
17449;SDS011;8842;51.244;7.102;2022-12-18T07:52:14;9.20;;;8.70;;
17449;SDS011;8842;51.244;7.102;2022-12-18T07:57:29;10.37;;;9.67;;
17449;SDS011;8842;51.244;7.102;2022-12-18T08:07:44;8.33;;;7.93;;
17449;SDS011;8842;51.244;7.102;2022-12-18T08:12:49;10.03;;;9.23;;
17449;SDS011;8842;51.244;7.102;2022-12-18T08:18:01;8.57;;;7.97;;
17449;SDS011;8842;51.244;7.102;2022-12-18T08:23:07;8.20;;;7.80;;
17449;SDS011;8842;51.244;7.102;2022-12-18T08:28:19;9.13;;;7.93;;
17449;SDS011;8842;51.244;7.102;2022-12-18T08:33:31;9.73;;;8.67;;
17449;SDS011;8842;51.244;7.102;2022-12-18T08:38:42;9.60;;;8.90;;
17449;SDS011;8842;51.244;7.102;2022-12-18T08:43:54;9.40;;;8.80;;
17449;SDS011;8842;51.244;7.102;2022-12-18T08:49:16;8.27;;;7.87;;
17449;SDS011;8842;51.244;7.102;2022-12-18T08:54:28;8.77;;;8.27;;
17449;SDS011;8842;51.244;7.102;2022-12-18T09:04:43;8.93;;;8.43;;
17449;SDS011;8842;51.244;7.102;2022-12-18T09:15:01;10.03;;;9.33;;
17449;SDS011;8842;51.244;7.102;2022-12-18T09:20:13;9.40;;;8.90;;
17449;SDS011;8842;51.244;7.102;2022-12-18T09:25:17;9.63;;;8.93;;
17449;SDS011;8842;51.244;7.102;2022-12-18T09:30:29;8.10;;;7.70;;
17449;SDS011;8842;51.244;7.102;2022-12-18T09:40:47;7.40;;;7.10;;
17449;SDS011;8842;51.244;7.102;2022-12-18T09:45:53;8.53;;;8.03;;
17449;SDS011;8842;51.244;7.102;2022-12-18T09:51:09;8.30;;;7.90;;
17449;SDS011;8842;51.244;7.102;2022-12-18T09:56:15;9.07;;;8.47;;
17449;SDS011;8842;51.244;7.102;2022-12-18T10:01:28;9.30;;;8.80;;
17449;SDS011;8842;51.244;7.102;2022-12-18T10:06:36;9.53;;;8.97;;
17449;SDS011;8842;51.244;7.102;2022-12-18T10:11:49;9.17;;;8.57;;
17449;SDS011;8842;51.244;7.102;2022-12-18T10:22:13;8.00;;;7.60;;
17449;SDS011;8842;51.244;7.102;2022-12-18T10:32:35;8.07;;;7.47;;
17449;SDS011;8842;51.244;7.102;2022-12-18T10:37:39;9.73;;;9.13;;
17449;SDS011;8842;51.244;7.102;2022-12-18T10:43:12;8.87;;;8.27;;
17449;SDS011;8842;51.244;7.102;2022-12-18T10:48:20;7.60;;;7.20;;
17449;SDS011;8842;51.244;7.102;2022-12-18T10:53:26;8.40;;;7.90;;
17449;SDS011;8842;51.244;7.102;2022-12-18T10:58:32;7.30;;;7.00;;
17449;SDS011;8842;51.244;7.102;2022-12-18T11:03:46;8.07;;;7.47;;
17449;SDS011;8842;51.244;7.102;2022-12-18T11:14:15;8.70;;;8.30;;
17449;SDS011;8842;51.244;7.102;2022-12-18T11:19:23;9.23;;;8.73;;
17449;SDS011;8842;51.244;7.102;2022-12-18T11:24:32;9.70;;;9.10;;
17449;SDS011;8842;51.244;7.102;2022-12-18T11:29:44;12.03;;;10.80;;
17449;SDS011;8842;51.244;7.102;2022-12-18T11:34:49;10.90;;;9.77;;
17449;SDS011;8842;51.244;7.102;2022-12-18T11:40:05;10.33;;;9.50;;
17449;SDS011;8842;51.244;7.102;2022-12-18T11:50:42;8.70;;;8.03;;
17449;SDS011;8842;51.244;7.102;2022-12-18T11:55:51;9.17;;;8.67;;
17449;SDS011;8842;51.244;7.102;2022-12-18T12:01:03;9.70;;;9.00;;
17449;SDS011;8842;51.244;7.102;2022-12-18T12:06:19;8.10;;;7.70;;
17449;SDS011;8842;51.244;7.102;2022-12-18T12:11:28;8.60;;;8.20;;
17449;SDS011;8842;51.244;7.102;2022-12-18T12:16:43;9.00;;;8.50;;
17449;SDS011;8842;51.244;7.102;2022-12-18T12:27:03;8.00;;;7.60;;
17449;SDS011;8842;51.244;7.102;2022-12-18T12:32:13;9.47;;;8.63;;
17449;SDS011;8842;51.244;7.102;2022-12-18T12:37:32;9.50;;;9.00;;
17449;SDS011;8842;51.244;7.102;2022-12-18T12:42:38;11.30;;;10.23;;
17449;SDS011;8842;51.244;7.102;2022-12-18T12:47:51;11.60;;;10.63;;
17449;SDS011;8842;51.244;7.102;2022-12-18T12:58:10;11.17;;;10.37;;
17449;SDS011;8842;51.244;7.102;2022-12-18T13:03:18;12.23;;;11.33;;
17449;SDS011;8842;51.244;7.102;2022-12-18T13:08:31;10.30;;;9.70;;
17449;SDS011;8842;51.244;7.102;2022-12-18T13:18:58;10.60;;;9.53;;
17449;SDS011;8842;51.244;7.102;2022-12-18T13:24:14;10.30;;;9.80;;
17449;SDS011;8842;51.244;7.102;2022-12-18T13:40:54;10.53;;;9.70;;
17449;SDS011;8842;51.244;7.102;2022-12-18T13:46:17;11.57;;;10.50;;
17449;SDS011;8842;51.244;7.102;2022-12-18T13:51:27;10.63;;;9.83;;
17449;SDS011;8842;51.244;7.102;2022-12-18T13:56:34;11.97;;;10.90;;
17449;SDS011;8842;51.244;7.102;2022-12-18T14:01:47;12.37;;;11.47;;
17449;SDS011;8842;51.244;7.102;2022-12-18T14:12:04;10.50;;;9.60;;
17449;SDS011;8842;51.244;7.102;2022-12-18T14:17:16;14.20;;;12.80;;
17449;SDS011;8842;51.244;7.102;2022-12-18T14:22:23;14.33;;;9.73;;
17449;SDS011;8842;51.244;7.102;2022-12-18T14:27:36;10.67;;;9.87;;
17449;SDS011;8842;51.244;7.102;2022-12-18T14:32:59;9.57;;;9.07;;
17449;SDS011;8842;51.244;7.102;2022-12-18T14:43:22;9.87;;;9.30;;
17449;SDS011;8842;51.244;7.102;2022-12-18T14:48:35;9.50;;;9.00;;
17449;SDS011;8842;51.244;7.102;2022-12-18T14:53:42;9.33;;;8.83;;
17449;SDS011;8842;51.244;7.102;2022-12-18T14:58:55;10.47;;;9.67;;
17449;SDS011;8842;51.244;7.102;2022-12-18T15:04:02;10.10;;;9.50;;
17449;SDS011;8842;51.244;7.102;2022-12-18T15:09:20;10.33;;;9.73;;
17449;SDS011;8842;51.244;7.102;2022-12-18T15:14:33;9.80;;;9.30;;
17449;SDS011;8842;51.244;7.102;2022-12-18T15:19:49;9.90;;;9.27;;
17449;SDS011;8842;51.244;7.102;2022-12-18T15:24:56;9.93;;;9.33;;
17449;SDS011;8842;51.244;7.102;2022-12-18T15:30:21;11.47;;;10.67;;
17449;SDS011;8842;51.244;7.102;2022-12-18T15:40:38;11.57;;;10.73;;
17449;SDS011;8842;51.244;7.102;2022-12-18T15:45:42;10.07;;;9.53;;
17449;SDS011;8842;51.244;7.102;2022-12-18T15:50:54;9.73;;;9.13;;
17449;SDS011;8842;51.244;7.102;2022-12-18T16:01:20;10.33;;;9.57;;
17449;SDS011;8842;51.244;7.102;2022-12-18T16:06:25;10.77;;;10.07;;
17449;SDS011;8842;51.244;7.102;2022-12-18T16:11:37;12.67;;;11.50;;
17449;SDS011;8842;51.244;7.102;2022-12-18T16:16:44;12.43;;;11.17;;
17449;SDS011;8842;51.244;7.102;2022-12-18T16:21:57;10.00;;;9.50;;
17449;SDS011;8842;51.244;7.102;2022-12-18T16:32:13;12.13;;;10.90;;
17449;SDS011;8842;51.244;7.102;2022-12-18T16:37:18;12.40;;;11.50;;
17449;SDS011;8842;51.244;7.102;2022-12-18T16:42:30;14.50;;;13.27;;
17449;SDS011;8842;51.244;7.102;2022-12-18T16:47:34;14.80;;;13.27;;
17449;SDS011;8842;51.244;7.102;2022-12-18T16:52:38;11.53;;;10.40;;
17449;SDS011;8842;51.244;7.102;2022-12-18T17:13:35;14.87;;;13.67;;
17449;SDS011;8842;51.244;7.102;2022-12-18T17:23:50;15.30;;;10.87;;
17449;SDS011;8842;51.244;7.102;2022-12-18T17:34:06;24.67;;;15.03;;
17449;SDS011;8842;51.244;7.102;2022-12-18T17:39:15;15.37;;;13.17;;
17449;SDS011;8842;51.244;7.102;2022-12-18T17:44:27;21.03;;;15.23;;
17449;SDS011;8842;51.244;7.102;2022-12-18T17:54:43;24.17;;;17.97;;
17449;SDS011;8842;51.244;7.102;2022-12-18T17:59:47;15.87;;;13.93;;
17449;SDS011;8842;51.244;7.102;2022-12-18T18:04:58;15.87;;;14.27;;
17449;SDS011;8842;51.244;7.102;2022-12-18T18:10:03;12.87;;;12.00;;
17449;SDS011;8842;51.244;7.102;2022-12-18T18:15:17;16.80;;;13.90;;
17449;SDS011;8842;51.244;7.102;2022-12-18T18:20:21;21.33;;;16.13;;
17449;SDS011;8842;51.244;7.102;2022-12-18T18:25:35;11.30;;;10.53;;
17449;SDS011;8842;51.244;7.102;2022-12-18T18:30:39;17.73;;;15.30;;
17449;SDS011;8842;51.244;7.102;2022-12-18T18:35:52;11.60;;;10.80;;
17449;SDS011;8842;51.244;7.102;2022-12-18T18:46:11;12.37;;;11.37;;
17449;SDS011;8842;51.244;7.102;2022-12-18T18:51:16;12.03;;;10.87;;
17449;SDS011;8842;51.244;7.102;2022-12-18T18:56:28;19.73;;;13.97;;
17449;SDS011;8842;51.244;7.102;2022-12-18T19:01:33;16.60;;;13.67;;
17449;SDS011;8842;51.244;7.102;2022-12-18T19:06:45;22.90;;;16.77;;
17449;SDS011;8842;51.244;7.102;2022-12-18T19:11:50;15.47;;;13.83;;
17449;SDS011;8842;51.244;7.102;2022-12-18T19:17:14;11.73;;;10.90;;
17449;SDS011;8842;51.244;7.102;2022-12-18T19:22:26;12.37;;;11.40;;
17449;SDS011;8842;51.244;7.102;2022-12-18T19:27:30;11.93;;;10.80;;
17449;SDS011;8842;51.244;7.102;2022-12-18T19:32:34;10.37;;;9.70;;
17449;SDS011;8842;51.244;7.102;2022-12-18T19:37:47;11.13;;;10.10;;
17449;SDS011;8842;51.244;7.102;2022-12-18T19:42:51;18.23;;;12.67;;
17449;SDS011;8842;51.244;7.102;2022-12-18T19:48:03;14.20;;;13.07;;
17449;SDS011;8842;51.244;7.102;2022-12-18T19:53:09;19.33;;;13.53;;
17449;SDS011;8842;51.244;7.102;2022-12-18T20:03:24;10.90;;;9.80;;
17449;SDS011;8842;51.244;7.102;2022-12-18T20:08:28;10.77;;;10.03;;
17449;SDS011;8842;51.244;7.102;2022-12-18T20:13:32;10.53;;;9.87;;
17449;SDS011;8842;51.244;7.102;2022-12-18T20:18:44;11.57;;;10.87;;
17449;SDS011;8842;51.244;7.102;2022-12-18T20:23:48;13.63;;;12.23;;
17449;SDS011;8842;51.244;7.102;2022-12-18T20:28:53;11.90;;;11.00;;
17449;SDS011;8842;51.244;7.102;2022-12-18T20:34:04;13.23;;;12.20;;
17449;SDS011;8842;51.244;7.102;2022-12-18T20:39:09;12.03;;;11.03;;
17449;SDS011;8842;51.244;7.102;2022-12-18T20:44:20;10.43;;;9.83;;
17449;SDS011;8842;51.244;7.102;2022-12-18T20:49:25;10.73;;;10.00;;
17449;SDS011;8842;51.244;7.102;2022-12-18T20:54:37;9.50;;;9.00;;
17449;SDS011;8842;51.244;7.102;2022-12-18T20:59:41;13.87;;;12.67;;
17449;SDS011;8842;51.244;7.102;2022-12-18T21:04:53;9.47;;;8.87;;
17449;SDS011;8842;51.244;7.102;2022-12-18T21:15:08;16.67;;;11.30;;
17449;SDS011;8842;51.244;7.102;2022-12-18T21:25:24;13.33;;;12.13;;
17449;SDS011;8842;51.244;7.102;2022-12-18T21:30:29;11.73;;;10.77;;
17449;SDS011;8842;51.244;7.102;2022-12-18T21:35:40;10.67;;;9.73;;
17449;SDS011;8842;51.244;7.102;2022-12-18T21:45:55;12.53;;;11.30;;
17449;SDS011;8842;51.244;7.102;2022-12-18T21:56:10;14.87;;;12.80;;
17449;SDS011;8842;51.244;7.102;2022-12-18T22:01:14;13.13;;;12.13;;
17449;SDS011;8842;51.244;7.102;2022-12-18T22:06:19;13.53;;;11.40;;
17449;SDS011;8842;51.244;7.102;2022-12-18T22:11:24;11.73;;;10.57;;
17449;SDS011;8842;51.244;7.102;2022-12-18T22:16:28;10.47;;;9.87;;
17449;SDS011;8842;51.244;7.102;2022-12-18T22:21:32;11.73;;;10.83;;
17449;SDS011;8842;51.244;7.102;2022-12-18T22:26:38;9.37;;;8.67;;
17449;SDS011;8842;51.244;7.102;2022-12-18T22:31:42;11.97;;;10.97;;
17449;SDS011;8842;51.244;7.102;2022-12-18T22:36:54;10.57;;;9.73;;
17449;SDS011;8842;51.244;7.102;2022-12-18T22:41:58;9.57;;;8.73;;
17449;SDS011;8842;51.244;7.102;2022-12-18T22:47:10;9.67;;;8.80;;
17449;SDS011;8842;51.244;7.102;2022-12-18T22:52:17;10.77;;;10.07;;
17449;SDS011;8842;51.244;7.102;2022-12-18T22:57:28;11.33;;;10.33;;
17449;SDS011;8842;51.244;7.102;2022-12-18T23:07:43;13.57;;;12.13;;
17449;SDS011;8842;51.244;7.102;2022-12-18T23:17:59;14.90;;;12.93;;
17449;SDS011;8842;51.244;7.102;2022-12-18T23:23:03;13.03;;;11.37;;
17449;SDS011;8842;51.244;7.102;2022-12-18T23:28:07;12.17;;;11.17;;
17449;SDS011;8842;51.244;7.102;2022-12-18T23:33:11;8.93;;;8.43;;
17449;SDS011;8842;51.244;7.102;2022-12-18T23:38:23;11.87;;;10.90;;
17449;SDS011;8842;51.244;7.102;2022-12-18T23:48:40;13.03;;;11.73;;
17449;SDS011;8842;51.244;7.102;2022-12-18T23:53:44;15.77;;;14.13;;
17449;SDS011;8842;51.244;7.102;2022-12-18T23:58:48;12.53;;;11.33;;
